sensor_id;sensor_type;location;lat;lon;timestamp;pressure;altitude;pressure_sealevel;temperature;humidity
17072;BME280;7731;50.720;6.912;2022-09-09T00:00:52;99413.00;;;16.33;100.00
17072;BME280;7731;50.720;6.912;2022-09-09T00:03:27;99404.25;;;16.34;100.00
17072;BME280;7731;50.720;6.912;2022-09-09T00:06:13;99400.19;;;16.41;100.00
17072;BME280;7731;50.720;6.912;2022-09-09T00:09:02;99399.53;;;16.39;100.00
17072;BME280;7731;50.720;6.912;2022-09-09T00:11:43;99389.81;;;16.31;100.00
17072;BME280;7731;50.720;6.912;2022-09-09T00:14:22;99395.28;;;16.38;100.00
17072;BME280;7731;50.720;6.912;2022-09-09T00:17:01;99392.94;;;16.35;100.00
17072;BME280;7731;50.720;6.912;2022-09-09T00:19:43;99394.94;;;16.21;100.00
17072;BME280;7731;50.720;6.912;2022-09-09T00:22:20;99397.59;;;16.31;100.00
17072;BME280;7731;50.720;6.912;2022-09-09T00:24:55;99400.97;;;16.22;100.00
17072;BME280;7731;50.720;6.912;2022-09-09T00:27:31;99401.16;;;16.09;100.00
17072;BME280;7731;50.720;6.912;2022-09-09T00:30:16;99403.84;;;15.98;100.00
17072;BME280;7731;50.720;6.912;2022-09-09T00:32:53;99404.66;;;15.98;100.00
17072;BME280;7731;50.720;6.912;2022-09-09T00:35:29;99405.03;;;15.94;100.00
17072;BME280;7731;50.720;6.912;2022-09-09T00:38:09;99395.91;;;15.89;100.00
17072;BME280;7731;50.720;6.912;2022-09-09T00:40:50;99402.06;;;15.77;100.00
17072;BME280;7731;50.720;6.912;2022-09-09T00:43:29;99398.47;;;15.68;100.00
17072;BME280;7731;50.720;6.912;2022-09-09T00:49:12;99397.78;;;15.87;100.00
17072;BME280;7731;50.720;6.912;2022-09-09T00:52:01;99397.78;;;15.87;100.00
17072;BME280;7731;50.720;6.912;2022-09-09T00:54:48;99404.88;;;15.85;100.00
17072;BME280;7731;50.720;6.912;2022-09-09T00:57:28;99405.16;;;15.71;100.00
17072;BME280;7731;50.720;6.912;2022-09-09T01:00:18;99401.84;;;15.80;100.00
17072;BME280;7731;50.720;6.912;2022-09-09T01:03:01;99404.88;;;15.85;100.00
17072;BME280;7731;50.720;6.912;2022-09-09T01:05:44;99401.75;;;15.70;100.00
17072;BME280;7731;50.720;6.912;2022-09-09T01:08:36;99396.91;;;15.77;100.00
17072;BME280;7731;50.720;6.912;2022-09-09T01:11:20;99402.53;;;15.82;100.00
17072;BME280;7731;50.720;6.912;2022-09-09T01:14:03;99394.00;;;15.92;100.00
17072;BME280;7731;50.720;6.912;2022-09-09T01:16:34;99396.97;;;15.87;100.00
17072;BME280;7731;50.720;6.912;2022-09-09T01:19:10;99392.06;;;15.84;100.00
17072;BME280;7731;50.720;6.912;2022-09-09T01:21:56;99402.56;;;15.71;100.00
17072;BME280;7731;50.720;6.912;2022-09-09T01:24:40;99392.09;;;15.94;100.00
17072;BME280;7731;50.720;6.912;2022-09-09T01:27:15;99394.50;;;15.85;100.00
17072;BME280;7731;50.720;6.912;2022-09-09T01:29:48;99396.91;;;15.77;100.00
17072;BME280;7731;50.720;6.912;2022-09-09T01:32:40;99388.94;;;15.69;100.00
17072;BME280;7731;50.720;6.912;2022-09-09T01:35:18;99390.19;;;15.75;100.00
17072;BME280;7731;50.720;6.912;2022-09-09T01:37:52;99393.16;;;15.70;100.00
17072;BME280;7731;50.720;6.912;2022-09-09T01:40:23;99391.72;;;15.77;100.00
17072;BME280;7731;50.720;6.912;2022-09-09T01:42:59;99388.13;;;15.68;100.00
17072;BME280;7731;50.720;6.912;2022-09-09T01:45:31;99396.16;;;15.86;100.00
17072;BME280;7731;50.720;6.912;2022-09-09T01:48:02;99385.81;;;15.86;100.00
17072;BME280;7731;50.720;6.912;2022-09-09T01:50:40;99390.22;;;15.96;100.00
17072;BME280;7731;50.720;6.912;2022-09-09T01:53:18;99390.97;;;15.86;100.00
17072;BME280;7731;50.720;6.912;2022-09-09T01:56:05;99395.97;;;16.09;100.00
17072;BME280;7731;50.720;6.912;2022-09-09T01:59:01;99399.69;;;15.85;100.00
17072;BME280;7731;50.720;6.912;2022-09-09T02:01:52;99393.19;;;15.91;100.00
17072;BME280;7731;50.720;6.912;2022-09-09T02:04:37;99392.09;;;15.94;100.00
17072;BME280;7731;50.720;6.912;2022-09-09T02:07:29;99391.78;;;15.87;100.00
17072;BME280;7731;50.720;6.912;2022-09-09T02:10:10;99390.47;;;15.93;100.00
17072;BME280;7731;50.720;6.912;2022-09-09T02:12:53;99383.22;;;16.17;100.00
17072;BME280;7731;50.720;6.912;2022-09-09T02:15:32;99389.59;;;16.13;100.00
17072;BME280;7731;50.720;6.912;2022-09-09T02:18:10;99393.13;;;16.12;100.00
17072;BME280;7731;50.720;6.912;2022-09-09T02:20:44;99391.94;;;16.16;100.00
17072;BME280;7731;50.720;6.912;2022-09-09T02:23:17;99381.84;;;16.64;100.00
17072;BME280;7731;50.720;6.912;2022-09-09T02:25:50;99386.91;;;16.65;100.00
17072;BME280;7731;50.720;6.912;2022-09-09T02:28:24;99386.06;;;16.65;100.00
17072;BME280;7731;50.720;6.912;2022-09-09T02:30:58;99390.03;;;16.69;100.00
17072;BME280;7731;50.720;6.912;2022-09-09T02:33:38;99383.78;;;16.31;100.00
17072;BME280;7731;50.720;6.912;2022-09-09T02:36:11;99384.09;;;16.37;100.00
17072;BME280;7731;50.720;6.912;2022-09-09T02:38:47;99381.84;;;16.23;100.00
17072;BME280;7731;50.720;6.912;2022-09-09T02:41:24;99390.09;;;16.38;100.00
17072;BME280;7731;50.720;6.912;2022-09-09T02:43:55;99390.69;;;16.51;100.00
17072;BME280;7731;50.720;6.912;2022-09-09T02:46:49;99386.59;;;16.58;100.00
17072;BME280;7731;50.720;6.912;2022-09-09T02:49:38;99386.84;;;16.55;100.00
17072;BME280;7731;50.720;6.912;2022-09-09T02:52:15;99377.03;;;16.49;100.00
17072;BME280;7731;50.720;6.912;2022-09-09T02:54:48;99373.91;;;16.55;100.00
17072;BME280;7731;50.720;6.912;2022-09-09T02:57:33;99377.59;;;16.63;100.00
17072;BME280;7731;50.720;6.912;2022-09-09T03:00:06;99380.00;;;16.45;100.00
17072;BME280;7731;50.720;6.912;2022-09-09T03:02:39;99377.66;;;16.32;100.00
17072;BME280;7731;50.720;6.912;2022-09-09T03:05:09;99374.47;;;16.18;100.00
17072;BME280;7731;50.720;6.912;2022-09-09T03:07:40;99374.22;;;16.21;100.00
17072;BME280;7731;50.720;6.912;2022-09-09T03:10:10;99376.91;;;16.10;100.00
17072;BME280;7731;50.720;6.912;2022-09-09T03:12:40;99379.34;;;16.02;100.00
17072;BME280;7731;50.720;6.912;2022-09-09T03:15:13;99379.38;;;16.12;100.00
17072;BME280;7731;50.720;6.912;2022-09-09T03:17:46;99383.47;;;16.14;100.00
17072;BME280;7731;50.720;6.912;2022-09-09T03:20:16;99385.88;;;16.06;100.00
17072;BME280;7731;50.720;6.912;2022-09-09T03:22:50;99384.13;;;16.06;100.00
17072;BME280;7731;50.720;6.912;2022-09-09T03:25:22;99370.31;;;16.06;100.00
17072;BME280;7731;50.720;6.912;2022-09-09T03:27:56;99385.81;;;16.17;100.00
17072;BME280;7731;50.720;6.912;2022-09-09T03:30:47;99391.78;;;16.18;100.00
17072;BME280;7731;50.720;6.912;2022-09-09T03:33:19;99391.00;;;16.27;100.00
17072;BME280;7731;50.720;6.912;2022-09-09T03:35:49;99385.78;;;16.48;100.00
17072;BME280;7731;50.720;6.912;2022-09-09T03:38:20;99383.84;;;16.40;100.00
17072;BME280;7731;50.720;6.912;2022-09-09T03:40:55;99378.91;;;16.37;100.00
17072;BME280;7731;50.720;6.912;2022-09-09T03:43:28;99374.00;;;16.34;100.00
17072;BME280;7731;50.720;6.912;2022-09-09T03:46:00;99381.91;;;16.33;100.00
17072;BME280;7731;50.720;6.912;2022-09-09T03:48:33;99379.84;;;16.27;100.00
17072;BME280;7731;50.720;6.912;2022-09-09T03:51:04;99379.06;;;16.36;100.00
17072;BME280;7731;50.720;6.912;2022-09-09T03:53:34;99374.94;;;16.33;100.00
17072;BME280;7731;50.720;6.912;2022-09-09T03:56:06;99374.47;;;16.18;100.00
17072;BME280;7731;50.720;6.912;2022-09-09T03:58:37;99365.50;;;16.22;100.00
17072;BME280;7731;50.720;6.912;2022-09-09T04:01:10;99368.69;;;16.36;100.00
17072;BME280;7731;50.720;6.912;2022-09-09T04:03:53;99366.91;;;16.46;100.00
17072;BME280;7731;50.720;6.912;2022-09-09T04:06:25;99376.00;;;16.31;100.00
17072;BME280;7731;50.720;6.912;2022-09-09T04:08:55;99376.47;;;16.36;100.00
17072;BME280;7731;50.720;6.912;2022-09-09T04:11:26;99380.53;;;16.29;100.00
17072;BME280;7731;50.720;6.912;2022-09-09T04:13:56;99374.81;;;16.35;100.00
17072;BME280;7731;50.720;6.912;2022-09-09T04:16:26;99385.69;;;16.29;100.00
17072;BME280;7731;50.720;6.912;2022-09-09T04:18:59;99386.75;;;16.16;100.00
17072;BME280;7731;50.720;6.912;2022-09-09T04:21:31;99388.41;;;16.27;100.00
17072;BME280;7731;50.720;6.912;2022-09-09T04:24:04;99382.09;;;16.10;100.00
17072;BME280;7731;50.720;6.912;2022-09-09T04:26:36;99372.63;;;16.40;100.00
17072;BME280;7731;50.720;6.912;2022-09-09T04:29:06;99378.59;;;16.31;100.00
17072;BME280;7731;50.720;6.912;2022-09-09T04:31:37;99383.22;;;16.17;100.00
17072;BME280;7731;50.720;6.912;2022-09-09T04:34:13;99390.16;;;16.17;100.00
17072;BME280;7731;50.720;6.912;2022-09-09T04:36:48;99378.44;;;16.22;100.00
17072;BME280;7731;50.720;6.912;2022-09-09T04:39:18;99381.13;;;16.42;100.00
17072;BME280;7731;50.720;6.912;2022-09-09T04:41:49;99377.81;;;16.40;100.00
17072;BME280;7731;50.720;6.912;2022-09-09T04:44:20;99397.22;;;16.46;100.00
17072;BME280;7731;50.720;6.912;2022-09-09T04:46:50;99392.03;;;16.55;100.00
17072;BME280;7731;50.720;6.912;2022-09-09T04:49:27;99386.56;;;16.39;100.00
17072;BME280;7731;50.720;6.912;2022-09-09T04:51:58;99390.63;;;16.32;100.00
17072;BME280;7731;50.720;6.912;2022-09-09T04:54:29;99386.38;;;16.31;100.00
17072;BME280;7731;50.720;6.912;2022-09-09T04:56:59;99389.94;;;16.30;100.00
17072;BME280;7731;50.720;6.912;2022-09-09T04:59:32;99380.53;;;16.29;100.00
17072;BME280;7731;50.720;6.912;2022-09-09T05:02:03;99387.09;;;16.33;100.00
17072;BME280;7731;50.720;6.912;2022-09-09T05:04:38;99395.44;;;16.46;100.00
17072;BME280;7731;50.720;6.912;2022-09-09T05:07:13;99381.16;;;16.21;100.00
17072;BME280;7731;50.720;6.912;2022-09-09T05:09:43;99390.34;;;16.35;100.00
17072;BME280;7731;50.720;6.912;2022-09-09T05:12:15;99392.28;;;16.42;99.42
17072;BME280;7731;50.720;6.912;2022-09-09T05:14:46;99384.72;;;16.60;98.14
17072;BME280;7731;50.720;6.912;2022-09-09T05:17:22;99391.13;;;16.66;98.25
17072;BME280;7731;50.720;6.912;2022-09-09T05:19:56;99394.06;;;16.42;99.59
17072;BME280;7731;50.720;6.912;2022-09-09T05:22:26;99397.81;;;16.59;99.47
17072;BME280;7731;50.720;6.912;2022-09-09T05:24:57;99393.97;;;16.63;98.64
17072;BME280;7731;50.720;6.912;2022-09-09T05:27:28;99389.31;;;16.57;98.51
17072;BME280;7731;50.720;6.912;2022-09-09T05:30:07;99396.06;;;16.29;100.00
17072;BME280;7731;50.720;6.912;2022-09-09T05:32:42;99395.03;;;16.41;100.00
17072;BME280;7731;50.720;6.912;2022-09-09T05:35:18;99386.84;;;16.55;99.74
17072;BME280;7731;50.720;6.912;2022-09-09T05:37:50;99384.38;;;16.44;100.00
17072;BME280;7731;50.720;6.912;2022-09-09T05:40:23;99383.97;;;16.39;100.00
17072;BME280;7731;50.720;6.912;2022-09-09T05:43:00;99385.19;;;16.35;100.00
17072;BME280;7731;50.720;6.912;2022-09-09T05:45:31;99383.19;;;16.48;99.93
17072;BME280;7731;50.720;6.912;2022-09-09T05:48:02;99384.22;;;16.36;100.00
17072;BME280;7731;50.720;6.912;2022-09-09T05:50:37;99376.88;;;16.41;99.68
17072;BME280;7731;50.720;6.912;2022-09-09T05:53:17;99382.47;;;16.46;99.17
17072;BME280;7731;50.720;6.912;2022-09-09T05:55:47;99389.56;;;16.44;100.00
17072;BME280;7731;50.720;6.912;2022-09-09T05:58:20;99387.91;;;16.43;100.00
17072;BME280;7731;50.720;6.912;2022-09-09T06:00:51;99391.84;;;16.78;98.75
17072;BME280;7731;50.720;6.912;2022-09-09T06:03:31;99389.22;;;16.78;97.79
17072;BME280;7731;50.720;6.912;2022-09-09T06:06:16;99389.09;;;16.70;98.99
17072;BME280;7731;50.720;6.912;2022-09-09T06:08:50;99393.28;;;17.02;96.72
17072;BME280;7731;50.720;6.912;2022-09-09T06:11:24;99394.91;;;17.12;96.69
17072;BME280;7731;50.720;6.912;2022-09-09T06:13:58;99395.72;;;17.23;94.95
17072;BME280;7731;50.720;6.912;2022-09-09T06:16:30;99394.34;;;17.28;95.74
17072;BME280;7731;50.720;6.912;2022-09-09T06:19:01;99387.81;;;17.05;96.80
17072;BME280;7731;50.720;6.912;2022-09-09T06:21:37;99382.38;;;17.75;91.54
17072;BME280;7731;50.720;6.912;2022-09-09T06:24:07;99381.25;;;17.87;89.72
17072;BME280;7731;50.720;6.912;2022-09-09T06:26:39;99385.72;;;18.14;87.09
17072;BME280;7731;50.720;6.912;2022-09-09T06:29:13;99385.81;;;17.75;89.15
17072;BME280;7731;50.720;6.912;2022-09-09T06:31:43;99388.38;;;17.95;88.42
17072;BME280;7731;50.720;6.912;2022-09-09T06:34:14;99381.94;;;17.99;85.32
17072;BME280;7731;50.720;6.912;2022-09-09T06:36:47;99369.38;;;17.84;87.05
17072;BME280;7731;50.720;6.912;2022-09-09T06:39:19;99380.03;;;17.81;86.58
17072;BME280;7731;50.720;6.912;2022-09-09T06:41:49;99375.16;;;17.68;87.58
17072;BME280;7731;50.720;6.912;2022-09-09T06:44:30;99366.38;;;17.89;84.42
17072;BME280;7731;50.720;6.912;2022-09-09T06:47:04;99367.47;;;17.87;84.34
17072;BME280;7731;50.720;6.912;2022-09-09T06:49:37;99367.59;;;17.85;85.40
17072;BME280;7731;50.720;6.912;2022-09-09T06:52:16;99368.03;;;17.80;85.25
17072;BME280;7731;50.720;6.912;2022-09-09T06:54:47;99365.16;;;18.21;82.17
17072;BME280;7731;50.720;6.912;2022-09-09T06:57:17;99362.09;;;18.35;81.83
17072;BME280;7731;50.720;6.912;2022-09-09T07:00:04;99361.31;;;18.25;82.43
17072;BME280;7731;50.720;6.912;2022-09-09T07:02:35;99367.09;;;18.19;81.06
17072;BME280;7731;50.720;6.912;2022-09-09T07:05:08;99370.47;;;18.29;81.12
17072;BME280;7731;50.720;6.912;2022-09-09T07:07:41;99367.00;;;18.38;79.69
17072;BME280;7731;50.720;6.912;2022-09-09T07:10:11;99364.19;;;18.50;78.53
17072;BME280;7731;50.720;6.912;2022-09-09T07:12:41;99359.94;;;18.49;78.19
17072;BME280;7731;50.720;6.912;2022-09-09T07:15:11;99366.22;;;18.28;79.59
17072;BME280;7731;50.720;6.912;2022-09-09T07:17:42;99370.41;;;19.21;78.04
17072;BME280;7731;50.720;6.912;2022-09-09T07:20:12;99366.88;;;21.60;64.01
17072;BME280;7731;50.720;6.912;2022-09-09T07:22:45;99360.41;;;23.51;55.00
17072;BME280;7731;50.720;6.912;2022-09-09T07:25:15;99368.25;;;23.89;52.77
17072;BME280;7731;50.720;6.912;2022-09-09T07:27:49;99372.44;;;23.60;53.36
17072;BME280;7731;50.720;6.912;2022-09-09T07:30:19;99374.81;;;25.53;47.25
17072;BME280;7731;50.720;6.912;2022-09-09T07:32:54;99388.69;;;23.26;51.85
17072;BME280;7731;50.720;6.912;2022-09-09T07:35:38;99393.59;;;22.97;54.78
17072;BME280;7731;50.720;6.912;2022-09-09T07:38:11;99408.19;;;23.23;54.70
17072;BME280;7731;50.720;6.912;2022-09-09T07:40:42;99404.84;;;23.29;51.54
17072;BME280;7731;50.720;6.912;2022-09-09T07:43:12;99409.91;;;21.97;57.77
17072;BME280;7731;50.720;6.912;2022-09-09T07:45:58;99418.38;;;20.67;60.75
17072;BME280;7731;50.720;6.912;2022-09-09T07:48:28;99414.91;;;22.23;54.37
17072;BME280;7731;50.720;6.912;2022-09-09T07:51:10;99421.69;;;20.86;60.00
17072;BME280;7731;50.720;6.912;2022-09-09T07:53:45;99429.84;;;20.48;62.21
17072;BME280;7731;50.720;6.912;2022-09-09T07:56:26;99428.91;;;20.58;62.38
17072;BME280;7731;50.720;6.912;2022-09-09T07:58:58;99414.34;;;22.76;54.39
17072;BME280;7731;50.720;6.912;2022-09-09T08:01:49;99414.03;;;23.48;50.48
17072;BME280;7731;50.720;6.912;2022-09-09T08:04:24;99418.00;;;22.67;53.73
17072;BME280;7731;50.720;6.912;2022-09-09T08:06:58;99414.53;;;24.41;47.60
17072;BME280;7731;50.720;6.912;2022-09-09T08:09:32;99417.84;;;22.68;52.80
17072;BME280;7731;50.720;6.912;2022-09-09T08:12:03;99416.56;;;24.10;49.35
17072;BME280;7731;50.720;6.912;2022-09-09T08:14:38;99424.44;;;22.16;53.89
17072;BME280;7731;50.720;6.912;2022-09-09T08:17:09;99417.19;;;22.26;53.75
17072;BME280;7731;50.720;6.912;2022-09-09T08:19:39;99414.59;;;23.21;50.35
17072;BME280;7731;50.720;6.912;2022-09-09T08:22:09;99415.91;;;22.93;50.33
17072;BME280;7731;50.720;6.912;2022-09-09T08:24:46;99428.94;;;21.66;54.20
17072;BME280;7731;50.720;6.912;2022-09-09T08:27:16;99424.84;;;21.31;56.26
17072;BME280;7731;50.720;6.912;2022-09-09T08:29:46;99426.41;;;20.82;56.01
17072;BME280;7731;50.720;6.912;2022-09-09T08:32:17;99426.78;;;20.10;59.01
17072;BME280;7731;50.720;6.912;2022-09-09T08:34:50;99429.72;;;19.89;60.41
17072;BME280;7731;50.720;6.912;2022-09-09T08:37:27;99432.84;;;19.93;61.91
17072;BME280;7731;50.720;6.912;2022-09-09T08:40:00;99432.13;;;19.83;60.77
17072;BME280;7731;50.720;6.912;2022-09-09T08:42:41;99425.88;;;20.36;60.67
17072;BME280;7731;50.720;6.912;2022-09-09T08:45:28;99432.16;;;19.47;64.84
17072;BME280;7731;50.720;6.912;2022-09-09T08:48:29;99432.31;;;19.63;66.27
17072;BME280;7731;50.720;6.912;2022-09-09T08:51:07;99423.13;;;20.03;63.84
17072;BME280;7731;50.720;6.912;2022-09-09T08:53:43;99429.25;;;21.38;57.89
17072;BME280;7731;50.720;6.912;2022-09-09T08:56:21;99425.19;;;21.69;55.21
17072;BME280;7731;50.720;6.912;2022-09-09T08:58:55;99436.78;;;21.58;56.19
17072;BME280;7731;50.720;6.912;2022-09-09T09:01:53;99437.59;;;21.67;55.65
17072;BME280;7731;50.720;6.912;2022-09-09T09:04:45;99443.69;;;20.83;58.06
17072;BME280;7731;50.720;6.912;2022-09-09T09:07:36;99448.66;;;21.03;57.75
17072;BME280;7731;50.720;6.912;2022-09-09T09:10:31;99455.91;;;20.75;59.32
17072;BME280;7731;50.720;6.912;2022-09-09T09:13:17;99457.72;;;20.82;59.12
17072;BME280;7731;50.720;6.912;2022-09-09T09:15:54;99455.72;;;20.68;59.38
17072;BME280;7731;50.720;6.912;2022-09-09T09:18:27;99455.72;;;21.35;56.92
17072;BME280;7731;50.720;6.912;2022-09-09T09:21:10;99463.91;;;21.65;54.65
17072;BME280;7731;50.720;6.912;2022-09-09T09:23:50;99447.38;;;22.85;51.04
17072;BME280;7731;50.720;6.912;2022-09-09T09:26:30;99442.91;;;23.63;48.64
17072;BME280;7731;50.720;6.912;2022-09-09T09:29:11;99433.22;;;23.87;46.76
17072;BME280;7731;50.720;6.912;2022-09-09T09:31:46;99435.56;;;24.12;44.39
17072;BME280;7731;50.720;6.912;2022-09-09T09:34:25;99434.03;;;23.26;48.11
17072;BME280;7731;50.720;6.912;2022-09-09T09:36:57;99449.31;;;21.96;50.64
17072;BME280;7731;50.720;6.912;2022-09-09T09:39:31;99448.84;;;21.92;50.18
17072;BME280;7731;50.720;6.912;2022-09-09T09:42:26;99443.88;;;22.93;48.71
17072;BME280;7731;50.720;6.912;2022-09-09T09:45:08;99434.13;;;24.24;45.30
17072;BME280;7731;50.720;6.912;2022-09-09T09:47:59;99437.13;;;23.53;46.98
17072;BME280;7731;50.720;6.912;2022-09-09T09:50:34;99429.56;;;23.12;47.98
17072;BME280;7731;50.720;6.912;2022-09-09T09:53:17;99437.53;;;24.91;44.06
17072;BME280;7731;50.720;6.912;2022-09-09T09:56:03;99433.16;;;24.76;44.00
17072;BME280;7731;50.720;6.912;2022-09-09T09:58:49;99430.25;;;26.14;39.67
17072;BME280;7731;50.720;6.912;2022-09-09T10:01:27;99433.44;;;26.03;39.90
17072;BME280;7731;50.720;6.912;2022-09-09T10:04:13;99433.81;;;25.43;40.50
17072;BME280;7731;50.720;6.912;2022-09-09T10:06:46;99439.69;;;24.81;42.72
17072;BME280;7731;50.720;6.912;2022-09-09T10:09:25;99436.28;;;24.35;43.02
17072;BME280;7731;50.720;6.912;2022-09-09T10:12:14;99441.63;;;25.37;41.42
17072;BME280;7731;50.720;6.912;2022-09-09T10:15:00;99441.53;;;24.65;41.80
17072;BME280;7731;50.720;6.912;2022-09-09T10:17:46;99447.00;;;22.96;47.62
17072;BME280;7731;50.720;6.912;2022-09-09T10:20:37;99444.06;;;22.12;50.23
17072;BME280;7731;50.720;6.912;2022-09-09T10:23:31;99449.50;;;21.77;52.56
17072;BME280;7731;50.720;6.912;2022-09-09T10:26:24;99434.56;;;22.19;51.78
17072;BME280;7731;50.720;6.912;2022-09-09T10:29:14;99435.00;;;22.39;51.71
17072;BME280;7731;50.720;6.912;2022-09-09T10:32:09;99435.66;;;22.73;48.83
17072;BME280;7731;50.720;6.912;2022-09-09T10:34:57;99433.50;;;22.45;49.66
17072;BME280;7731;50.720;6.912;2022-09-09T10:37:53;99452.31;;;21.60;51.54
17072;BME280;7731;50.720;6.912;2022-09-09T10:40:34;99443.81;;;21.49;52.94
17072;BME280;7731;50.720;6.912;2022-09-09T10:43:24;99443.00;;;21.73;52.12
17072;BME280;7731;50.720;6.912;2022-09-09T10:46:07;99443.81;;;21.74;52.76
17072;BME280;7731;50.720;6.912;2022-09-09T10:49:08;99434.03;;;21.60;51.54
17072;BME280;7731;50.720;6.912;2022-09-09T10:52:00;99440.81;;;21.85;50.58
17072;BME280;7731;50.720;6.912;2022-09-09T10:54:45;99437.06;;;21.88;51.44
17072;BME280;7731;50.720;6.912;2022-09-09T10:57:37;99432.31;;;22.56;48.21
17072;BME280;7731;50.720;6.912;2022-09-09T11:00:24;99419.50;;;22.92;47.73
17072;BME280;7731;50.720;6.912;2022-09-09T11:02:59;99422.22;;;22.76;48.39
17072;BME280;7731;50.720;6.912;2022-09-09T11:05:41;99417.06;;;22.91;46.76
17072;BME280;7731;50.720;6.912;2022-09-09T11:08:24;99427.66;;;22.97;45.56
17072;BME280;7731;50.720;6.912;2022-09-09T11:11:01;99418.19;;;22.65;46.27
17072;BME280;7731;50.720;6.912;2022-09-09T11:13:41;99415.16;;;22.53;47.15
17072;BME280;7731;50.720;6.912;2022-09-09T11:16:28;99399.91;;;25.05;41.30
17072;BME280;7731;50.720;6.912;2022-09-09T11:19:04;99411.41;;;25.04;41.63
17072;BME280;7731;50.720;6.912;2022-09-09T11:21:46;99406.94;;;24.47;42.71
17072;BME280;7731;50.720;6.912;2022-09-09T11:24:27;99405.78;;;23.89;43.89
17072;BME280;7731;50.720;6.912;2022-09-09T11:27:09;99409.88;;;23.92;43.50
17072;BME280;7731;50.720;6.912;2022-09-09T11:30:12;99408.00;;;23.25;44.64
17072;BME280;7731;50.720;6.912;2022-09-09T11:33:38;99404.91;;;23.44;45.20
17072;BME280;7731;50.720;6.912;2022-09-09T11:40:09;99403.78;;;22.69;46.10
17072;BME280;7731;50.720;6.912;2022-09-09T11:43:01;99398.34;;;22.71;46.83
17072;BME280;7731;50.720;6.912;2022-09-09T11:45:35;99404.47;;;22.63;46.88
17072;BME280;7731;50.720;6.912;2022-09-09T11:48:22;99416.59;;;22.56;47.63
17072;BME280;7731;50.720;6.912;2022-09-09T11:51:03;99410.69;;;22.14;49.08
17072;BME280;7731;50.720;6.912;2022-09-09T11:53:49;99407.22;;;22.30;49.87
17072;BME280;7731;50.720;6.912;2022-09-09T11:56:34;99414.81;;;22.56;47.83
17072;BME280;7731;50.720;6.912;2022-09-09T11:59:21;99412.03;;;22.58;46.97
17072;BME280;7731;50.720;6.912;2022-09-09T12:01:57;99403.31;;;22.65;47.16
17072;BME280;7731;50.720;6.912;2022-09-09T12:04:35;99408.88;;;22.62;48.01
17072;BME280;7731;50.720;6.912;2022-09-09T12:07:34;99411.63;;;22.29;48.14
17072;BME280;7731;50.720;6.912;2022-09-09T12:10:22;99409.69;;;22.23;47.61
17072;BME280;7731;50.720;6.912;2022-09-09T12:13:16;99403.09;;;22.36;47.21
17072;BME280;7731;50.720;6.912;2022-09-09T12:15:56;99408.16;;;21.89;48.18
17072;BME280;7731;50.720;6.912;2022-09-09T12:18:34;99409.72;;;22.07;48.45
17072;BME280;7731;50.720;6.912;2022-09-09T12:21:14;99405.31;;;22.07;48.95
17072;BME280;7731;50.720;6.912;2022-09-09T12:23:52;99403.50;;;22.08;48.29
17072;BME280;7731;50.720;6.912;2022-09-09T12:26:33;99404.25;;;21.61;50.17
17072;BME280;7731;50.720;6.912;2022-09-09T12:29:27;99397.03;;;21.87;49.05
17072;BME280;7731;50.720;6.912;2022-09-09T12:32:10;99403.28;;;22.26;48.29
17072;BME280;7731;50.720;6.912;2022-09-09T12:34:46;99385.31;;;22.31;48.12
17072;BME280;7731;50.720;6.912;2022-09-09T12:37:29;99396.00;;;22.05;49.01
17072;BME280;7731;50.720;6.912;2022-09-09T12:40:04;99390.22;;;21.62;49.72
17072;BME280;7731;50.720;6.912;2022-09-09T12:42:40;99396.44;;;21.69;50.51
17072;BME280;7731;50.720;6.912;2022-09-09T12:45:23;99394.81;;;21.35;52.02
17072;BME280;7731;50.720;6.912;2022-09-09T12:47:57;99405.25;;;21.10;53.17
17072;BME280;7731;50.720;6.912;2022-09-09T12:50:31;99400.28;;;20.82;54.17
17072;BME280;7731;50.720;6.912;2022-09-09T12:53:08;99401.78;;;20.93;54.41
17072;BME280;7731;50.720;6.912;2022-09-09T12:55:53;99408.78;;;20.84;55.09
17072;BME280;7731;50.720;6.912;2022-09-09T12:58:26;99410.00;;;20.56;56.71
17072;BME280;7731;50.720;6.912;2022-09-09T13:01:04;99403.53;;;20.76;56.13
17072;BME280;7731;50.720;6.912;2022-09-09T13:03:43;99401.81;;;21.01;56.20
17072;BME280;7731;50.720;6.912;2022-09-09T13:06:22;99400.66;;;21.37;54.95
17072;BME280;7731;50.720;6.912;2022-09-09T13:08:58;99395.75;;;21.42;54.56
17072;BME280;7731;50.720;6.912;2022-09-09T13:11:35;99406.06;;;21.27;55.22
17072;BME280;7731;50.720;6.912;2022-09-09T13:14:17;99404.59;;;21.41;55.57
17072;BME280;7731;50.720;6.912;2022-09-09T13:16:59;99394.03;;;22.07;54.56
17072;BME280;7731;50.720;6.912;2022-09-09T13:19:36;99388.72;;;22.40;53.29
17072;BME280;7731;50.720;6.912;2022-09-09T13:22:20;99390.03;;;22.67;51.66
17072;BME280;7731;50.720;6.912;2022-09-09T13:25:02;99385.03;;;23.12;50.25
17072;BME280;7731;50.720;6.912;2022-09-09T13:27:35;99389.91;;;23.07;51.32
17072;BME280;7731;50.720;6.912;2022-09-09T13:30:24;99388.41;;;23.35;49.40
17072;BME280;7731;50.720;6.912;2022-09-09T13:33:21;99384.66;;;22.60;50.73
17072;BME280;7731;50.720;6.912;2022-09-09T13:35:57;99386.59;;;21.79;54.31
17072;BME280;7731;50.720;6.912;2022-09-09T13:38:31;99385.31;;;21.42;57.91
17072;BME280;7731;50.720;6.912;2022-09-09T13:41:05;99384.97;;;21.78;56.74
17072;BME280;7731;50.720;6.912;2022-09-09T13:43:38;99381.09;;;21.49;58.11
17072;BME280;7731;50.720;6.912;2022-09-09T13:46:30;99379.47;;;21.32;60.25
17072;BME280;7731;50.720;6.912;2022-09-09T13:49:21;99382.03;;;21.48;60.51
17072;BME280;7731;50.720;6.912;2022-09-09T13:52:15;99384.69;;;21.56;60.45
17072;BME280;7731;50.720;6.912;2022-09-09T13:54:53;99377.69;;;22.05;56.46
17072;BME280;7731;50.720;6.912;2022-09-09T13:57:29;99371.22;;;21.84;57.72
17072;BME280;7731;50.720;6.912;2022-09-09T13:59:59;99369.63;;;21.42;59.37
17072;BME280;7731;50.720;6.912;2022-09-09T14:02:32;99367.00;;;22.23;58.12
17072;BME280;7731;50.720;6.912;2022-09-09T14:05:06;99370.81;;;22.04;56.42
17072;BME280;7731;50.720;6.912;2022-09-09T14:07:42;99370.63;;;21.66;57.98
17072;BME280;7731;50.720;6.912;2022-09-09T14:10:19;99370.53;;;21.99;56.98
17072;BME280;7731;50.720;6.912;2022-09-09T14:12:50;99379.75;;;21.78;57.11